createdAt,value
2019-02-06T00:02:50.105Z,3.73
2019-02-06T00:05:51.996Z,3.69
2019-02-06T00:08:54.001Z,3.75
2019-02-06T00:11:55.913Z,3.77
2019-02-06T00:14:57.933Z,3.75
2019-02-06T00:17:59.973Z,3.72
2019-02-06T00:21:02.483Z,3.72
2019-02-06T00:24:05.659Z,3.70
2019-02-06T00:27:07.654Z,3.68
2019-02-06T00:30:12.240Z,3.69
2019-02-06T00:33:15.386Z,3.68
2019-02-06T00:36:17.302Z,3.64
2019-02-06T00:39:20.392Z,3.54
2019-02-06T00:42:22.291Z,3.59
2019-02-06T00:45:24.344Z,3.69
2019-02-06T00:48:26.283Z,3.79
2019-02-06T00:51:28.250Z,3.74
2019-02-06T00:54:30.134Z,3.75
2019-02-06T00:57:32.047Z,3.83
2019-02-06T01:00:34.014Z,3.85
2019-02-06T01:03:36.039Z,3.89
2019-02-06T01:06:37.948Z,3.96
2019-02-06T01:09:41.461Z,3.93
2019-02-06T01:12:43.746Z,3.92
2019-02-06T01:15:45.687Z,3.91
2019-02-06T01:18:47.608Z,3.93
2019-02-06T01:21:49.582Z,3.95
2019-02-06T01:24:51.508Z,3.92
2019-02-06T01:27:53.427Z,3.88
2019-02-06T01:30:57.172Z,3.95
2019-02-06T01:33:59.106Z,3.99
2019-02-06T01:37:01.320Z,4.01
2019-02-06T01:40:06.113Z,4.06
2019-02-06T01:43:08.325Z,4.10
2019-02-06T01:46:11.037Z,4.08
2019-02-06T01:49:13.055Z,4.06
2019-02-06T01:52:15.025Z,4.11
2019-02-06T01:55:16.973Z,4.13
2019-02-06T01:58:19.020Z,4.13
2019-02-06T02:01:21.023Z,4.13
2019-02-06T02:04:22.928Z,4.13
2019-02-06T02:07:24.902Z,4.06
2019-02-06T02:10:26.991Z,3.99
2019-02-06T02:13:28.891Z,4.02
2019-02-06T02:16:30.798Z,4.06
2019-02-06T02:19:32.735Z,4.08
2019-02-06T02:22:34.618Z,4.12
2019-02-06T02:25:36.529Z,4.16
2019-02-06T02:28:39.297Z,4.17
2019-02-06T02:31:41.216Z,4.18
2019-02-06T02:34:43.105Z,4.19
2019-02-06T02:37:45.059Z,4.18
2019-02-06T02:40:47.033Z,4.11
2019-02-06T02:43:49.024Z,4.11
2019-02-06T02:46:50.999Z,4.07
2019-02-06T02:49:52.976Z,4.14
2019-02-06T02:52:55.508Z,4.17
2019-02-06T02:55:57.636Z,4.17
2019-02-06T02:58:59.649Z,4.19
2019-02-06T03:02:06.310Z,4.23
2019-02-06T03:05:08.885Z,4.27
2019-02-06T03:08:10.769Z,4.32
2019-02-06T03:11:12.624Z,4.40
2019-02-06T03:14:14.541Z,4.47
2019-02-06T03:17:16.456Z,4.46
2019-02-06T03:20:18.502Z,4.39
2019-02-06T03:23:20.431Z,4.34
2019-02-06T03:26:22.362Z,4.28
2019-02-06T03:29:24.265Z,4.30
2019-02-06T03:32:26.140Z,4.32
2019-02-06T03:35:28.626Z,4.28
2019-02-06T03:38:30.622Z,4.24
2019-02-06T03:41:32.587Z,4.23
2019-02-06T03:44:34.516Z,4.23
2019-02-06T03:47:36.534Z,4.19
2019-02-06T03:50:38.483Z,4.21
2019-02-06T03:53:40.424Z,4.27
2019-02-06T03:56:42.305Z,4.36
2019-02-06T03:59:44.192Z,4.31
2019-02-06T04:02:46.203Z,4.31
2019-02-06T04:05:48.065Z,4.33
2019-02-06T04:08:50.333Z,4.27
2019-02-06T04:11:52.238Z,4.25
2019-02-06T04:14:54.158Z,4.25
2019-02-06T04:17:56.093Z,4.23
2019-02-06T04:20:58.078Z,4.19
2019-02-06T04:23:59.953Z,4.19
2019-02-06T04:27:01.938Z,4.22
2019-02-06T04:30:07.517Z,4.27
2019-02-06T04:33:09.496Z,4.29
2019-02-06T04:36:11.477Z,4.30
2019-02-06T04:39:13.828Z,4.29
2019-02-06T04:42:15.986Z,4.29
2019-02-06T04:45:18.563Z,4.28
2019-02-06T04:48:20.500Z,4.22
2019-02-06T04:51:22.660Z,4.20
2019-02-06T04:54:25.727Z,4.16
2019-02-06T04:57:27.701Z,4.16
2019-02-06T05:00:29.571Z,4.26
2019-02-06T05:03:31.496Z,4.24
2019-02-06T05:06:33.364Z,4.25
2019-02-06T05:09:35.345Z,4.23
2019-02-06T05:12:37.280Z,4.21
2019-02-06T05:15:39.511Z,4.20
2019-02-06T05:18:41.439Z,4.20
2019-02-06T05:21:43.478Z,4.24
2019-02-06T05:24:45.421Z,4.22
2019-02-06T05:27:47.453Z,4.20
2019-02-06T05:30:49.391Z,4.24
2019-02-06T05:33:51.266Z,4.27
2019-02-06T05:36:53.246Z,4.31
2019-02-06T05:39:55.235Z,4.32
2019-02-06T05:42:57.175Z,4.35
2019-02-06T05:45:59.050Z,4.34
2019-02-06T05:49:01.286Z,4.40
2019-02-06T05:52:03.496Z,4.40
2019-02-06T05:55:06.144Z,4.42
2019-02-06T05:58:08.023Z,4.40
2019-02-06T06:01:09.983Z,4.39
2019-02-06T06:04:11.872Z,4.36
2019-02-06T06:07:13.880Z,4.36
2019-02-06T06:10:17.713Z,4.37
2019-02-06T06:13:19.984Z,4.34
2019-02-06T06:16:21.881Z,4.33
2019-02-06T06:19:23.851Z,4.32
2019-02-06T06:22:25.868Z,4.37
2019-02-06T06:25:28.106Z,4.38
2019-02-06T06:28:30.247Z,4.35
2019-02-06T06:31:32.121Z,4.27
2019-02-06T06:34:34.057Z,4.27
2019-02-06T06:37:36.305Z,4.24
2019-02-06T06:40:39.524Z,4.19
2019-02-06T06:43:41.481Z,4.20
2019-02-06T06:46:43.911Z,4.16
2019-02-06T06:49:45.891Z,4.19
2019-02-06T06:52:47.850Z,4.23
2019-02-06T06:55:49.712Z,4.28
2019-02-06T06:58:51.635Z,4.31
2019-02-06T07:01:53.650Z,4.40
2019-02-06T07:04:55.565Z,4.42
2019-02-06T07:08:08.821Z,4.38
2019-02-06T07:11:01.267Z,4.49
2019-02-06T07:14:03.383Z,4.57
2019-02-06T07:17:05.239Z,4.65
2019-02-06T07:20:10.892Z,4.71
2019-02-06T07:23:13.907Z,4.82
2019-02-06T07:26:15.884Z,4.84
2019-02-06T07:29:18.168Z,4.88
2019-02-06T07:32:20.152Z,4.79
2019-02-06T07:35:22.624Z,4.83
2019-02-06T07:38:24.693Z,4.82
2019-02-06T07:41:26.753Z,4.92
2019-02-06T07:44:28.666Z,4.96
2019-02-06T07:47:30.520Z,5.00
2019-02-06T07:50:33.429Z,5.04
2019-02-06T07:53:35.415Z,5.06
2019-02-06T07:56:37.420Z,5.15
2019-02-06T07:59:39.300Z,5.18
2019-02-06T08:02:41.645Z,5.29
2019-02-06T08:05:43.674Z,5.48
2019-02-06T08:08:45.584Z,5.66
2019-02-06T08:11:47.496Z,5.74
2019-02-06T08:14:49.382Z,5.87
2019-02-06T08:17:51.492Z,5.99
2019-02-06T08:20:53.524Z,5.96
2019-02-06T08:23:55.531Z,5.94
2019-02-06T08:26:57.670Z,6.16
2019-02-06T08:29:59.573Z,6.30
2019-02-06T08:33:01.619Z,6.38
2019-02-06T08:36:04.050Z,6.46
2019-02-06T08:39:06.747Z,6.53
2019-02-06T08:42:08.675Z,6.62
2019-02-06T08:45:13.961Z,6.63
2019-02-06T08:48:15.909Z,6.78
2019-02-06T08:51:17.936Z,6.81
2019-02-06T08:54:20.446Z,6.89
2019-02-06T08:57:22.560Z,6.98
2019-02-06T09:00:30.043Z,7.11
2019-02-06T09:03:31.934Z,7.21
2019-02-06T09:06:33.995Z,7.29
2019-02-06T09:09:35.833Z,7.33
2019-02-06T09:12:37.743Z,7.47
2019-02-06T09:15:39.588Z,7.65
2019-02-06T09:18:41.804Z,7.81
2019-02-06T09:21:43.698Z,7.74
2019-02-06T09:24:45.649Z,7.87
2019-02-06T09:27:47.725Z,8.02
2019-02-06T09:30:49.710Z,8.18
2019-02-06T09:33:51.698Z,8.26
2019-02-06T09:36:53.607Z,8.30
2019-02-06T09:39:55.503Z,8.38
2019-02-06T09:42:57.528Z,8.42
2019-02-06T09:45:59.475Z,8.48
2019-02-06T09:49:01.514Z,8.51
2019-02-06T09:52:03.748Z,8.39
2019-02-06T09:55:06.030Z,8.32
2019-02-06T09:58:07.984Z,8.57
2019-02-06T10:01:09.907Z,8.62
2019-02-06T10:04:11.841Z,8.68
2019-02-06T10:07:13.733Z,8.81
2019-02-06T10:10:18.299Z,9.12
2019-02-06T10:13:20.256Z,9.20
2019-02-06T10:16:22.183Z,9.26
2019-02-06T10:19:24.102Z,9.16
2019-02-06T10:22:25.987Z,8.92
2019-02-06T10:25:29.400Z,9.12
2019-02-06T10:28:31.285Z,9.27
2019-02-06T10:31:33.228Z,9.39
2019-02-06T10:34:35.116Z,9.30
2019-02-06T10:37:37.627Z,9.27
2019-02-06T10:40:39.534Z,9.48
2019-02-06T10:43:42.518Z,9.50
2019-02-06T10:46:44.473Z,9.52
2019-02-06T10:49:46.599Z,9.31
2019-02-06T10:52:49.656Z,9.06
2019-02-06T10:55:51.700Z,9.02
2019-02-06T10:58:54.041Z,8.90
2019-02-06T11:01:56.133Z,8.67
2019-02-06T11:04:58.112Z,8.53
2019-02-06T11:08:00.181Z,8.38
2019-02-06T11:11:02.067Z,8.29
2019-02-06T11:14:04.266Z,8.02
2019-02-06T11:17:06.230Z,7.76
2019-02-06T11:20:14.820Z,7.56
2019-02-06T11:23:16.683Z,7.27
2019-02-06T11:26:18.668Z,7.16
2019-02-06T11:29:20.550Z,7.07
2019-02-06T11:32:23.110Z,6.91
2019-02-06T11:35:24.997Z,6.80
2019-02-06T11:38:28.057Z,6.61
2019-02-06T11:41:30.073Z,6.47
2019-02-06T11:44:33.351Z,6.51
2019-02-06T11:47:35.218Z,6.55
2019-02-06T11:50:39.039Z,6.66
2019-02-06T11:53:41.150Z,6.55
2019-02-06T11:56:43.156Z,6.73
2019-02-06T11:59:45.084Z,7.15
2019-02-06T12:02:46.989Z,7.41
2019-02-06T12:05:48.964Z,7.31
2019-02-06T12:08:50.969Z,7.31
2019-02-06T12:11:53.034Z,7.51
2019-02-06T12:14:54.963Z,7.47
2019-02-06T12:17:56.924Z,7.27
2019-02-06T12:20:58.883Z,7.30
2019-02-06T12:24:01.330Z,7.14
2019-02-06T12:27:03.542Z,6.92
2019-02-06T12:30:15.053Z,6.63
2019-02-06T12:33:17.274Z,6.26
2019-02-06T12:36:19.128Z,5.93
2019-02-06T12:39:22.783Z,5.76
2019-02-06T12:42:24.894Z,5.61
2019-02-06T12:45:26.812Z,5.70
2019-02-06T12:48:29.202Z,5.69
2019-02-06T12:51:31.582Z,5.56
2019-02-06T12:54:33.640Z,5.53
2019-02-06T12:57:37.442Z,5.32
2019-02-06T13:00:41.644Z,5.24
2019-02-06T13:03:43.682Z,4.99
2019-02-06T13:06:47.885Z,4.88
2019-02-06T13:09:50.702Z,4.92
2019-02-06T13:12:52.731Z,4.85
2019-02-06T13:15:54.618Z,4.80
2019-02-06T13:18:56.546Z,4.80
2019-02-06T13:21:58.431Z,4.75
2019-02-06T13:25:00.377Z,4.67
2019-02-06T13:28:03.117Z,4.63
2019-02-06T13:31:05.595Z,4.51
2019-02-06T13:34:07.681Z,4.45
2019-02-06T13:37:09.604Z,4.43
2019-02-06T13:40:16.992Z,4.41
2019-02-06T13:43:18.990Z,4.44
2019-02-06T13:46:20.974Z,4.42
2019-02-06T13:49:22.831Z,4.40
2019-02-06T13:52:28.204Z,4.40
2019-02-06T13:55:31.431Z,4.35
2019-02-06T13:58:33.482Z,4.22
2019-02-06T14:01:37.217Z,4.06
2019-02-06T14:04:42.231Z,3.90
2019-02-06T14:07:44.114Z,3.68
2019-02-06T14:10:58.452Z,3.65
2019-02-06T14:13:54.719Z,3.68
2019-02-06T14:16:58.253Z,3.68
2019-02-06T14:20:01.369Z,3.63
2019-02-06T14:23:16.160Z,3.55
2019-02-06T14:26:27.828Z,3.54
2019-02-06T14:29:42.739Z,3.45
2019-02-06T14:33:01.156Z,3.44
2019-02-06T14:36:33.559Z,3.27
2019-02-06T14:39:43.643Z,3.19
2019-02-06T14:42:55.581Z,3.09
2019-02-06T14:46:29.159Z,3.04
2019-02-06T14:49:40.911Z,3.00
2019-02-06T14:52:50.085Z,2.88
2019-02-06T14:56:13.874Z,2.90
2019-02-06T14:59:27.646Z,2.86
2019-02-06T15:02:42.520Z,2.70
2019-02-06T15:06:03.053Z,2.63
2019-02-06T15:09:42.805Z,2.57
2019-02-06T15:12:53.981Z,2.54
2019-02-06T15:15:59.797Z,2.32
2019-02-06T15:19:11.663Z,2.26
2019-02-06T15:22:37.194Z,2.21
2019-02-06T15:25:42.712Z,2.15
2019-02-06T15:29:00.256Z,2.02
2019-02-06T15:32:14.604Z,1.97
2019-02-06T15:35:32.620Z,1.81
2019-02-06T15:38:41.141Z,1.73
2019-02-06T15:41:58.976Z,1.56
2019-02-06T15:45:16.710Z,1.52
2019-02-06T15:48:28.515Z,1.46
2019-02-06T15:51:43.079Z,1.43
2019-02-06T15:55:13.894Z,1.37
2019-02-06T15:58:22.455Z,1.26
2019-02-06T16:01:43.309Z,1.17
2019-02-06T16:05:05.572Z,1.16
2019-02-06T16:08:13.932Z,1.09
2019-02-06T16:11:42.386Z,1.10
2019-02-06T16:14:43.899Z,1.10
2019-02-06T16:18:01.712Z,1.02
2019-02-06T16:21:23.725Z,0.99
2019-02-06T16:24:34.955Z,0.93
2019-02-06T16:27:43.490Z,0.88
2019-02-06T16:30:58.084Z,0.82
2019-02-06T16:34:28.102Z,0.70
2019-02-06T16:37:46.924Z,0.63
2019-02-06T16:41:01.276Z,0.54
2019-02-06T16:44:40.514Z,0.48
2019-02-06T16:47:58.328Z,0.37
2019-02-06T16:51:08.272Z,0.17
2019-02-06T16:54:14.251Z,0.09
2019-02-06T16:57:32.838Z,0.18
2019-02-06T17:00:50.514Z,0.22
2019-02-06T17:04:14.299Z,0.19
2019-02-06T17:07:25.735Z,0.20
2019-02-06T17:10:55.541Z,0.19
2019-02-06T17:14:29.996Z,0.25
2019-02-06T17:17:50.379Z,0.26
2019-02-06T17:21:18.339Z,0.16
2019-02-06T17:24:45.179Z,0.05
2019-02-06T17:28:17.472Z,-0.05
2019-02-06T17:31:29.796Z,-0.01
2019-02-06T17:34:53.127Z,0.01
2019-02-06T17:38:17.279Z,0.11
2019-02-06T17:41:27.267Z,0.07
2019-02-06T17:45:08.521Z,-0.04
2019-02-06T17:48:31.130Z,-0.09
2019-02-06T17:52:00.323Z,-0.47
2019-02-06T17:55:18.489Z,-0.66
2019-02-06T17:58:20.461Z,-0.89
2019-02-06T18:01:26.218Z,-0.97
2019-02-06T18:04:29.277Z,-1.02
2019-02-06T18:07:31.792Z,-0.98
2019-02-06T18:10:34.093Z,-0.87
2019-02-06T18:13:37.346Z,-0.87
2019-02-06T18:16:39.971Z,-0.99
2019-02-06T18:19:42.319Z,-1.08
2019-02-06T18:22:44.287Z,-1.17
2019-02-06T18:25:46.592Z,-1.27
2019-02-06T18:28:52.947Z,-1.33
2019-02-06T18:31:57.071Z,-1.41
2019-02-06T18:34:58.963Z,-1.46
2019-02-06T18:38:03.270Z,-1.51
2019-02-06T18:41:05.858Z,-1.59
2019-02-06T18:44:08.292Z,-1.66
2019-02-06T18:47:10.614Z,-1.63
2019-02-06T18:50:31.146Z,-1.64
2019-02-06T18:53:33.631Z,-1.62
2019-02-06T18:56:37.234Z,-1.70
2019-02-06T18:59:39.823Z,-1.69
2019-02-06T19:02:42.290Z,-1.67
2019-02-06T19:05:45.760Z,-1.74
2019-02-06T19:08:48.274Z,-1.81
2019-02-06T19:11:54.257Z,-1.90
2019-02-06T19:14:58.870Z,-1.94
2019-02-06T19:18:00.766Z,-1.95
2019-02-06T19:21:17.314Z,-1.94
2019-02-06T19:24:21.469Z,-1.85
2019-02-06T19:27:24.493Z,-1.85
2019-02-06T19:30:32.493Z,-1.81
2019-02-06T19:33:34.446Z,-1.76
2019-02-06T19:36:38.250Z,-1.69
2019-02-06T19:39:40.394Z,-1.57
2019-02-06T19:42:42.940Z,-1.49
2019-02-06T19:45:44.968Z,-1.47
2019-02-06T19:48:49.074Z,-1.47
2019-02-06T19:51:51.366Z,-1.46
2019-02-06T19:54:55.113Z,-1.50
2019-02-06T19:57:59.311Z,-1.54
2019-02-06T20:01:03.920Z,-1.51
2019-02-06T20:04:08.273Z,-1.48
2019-02-06T20:07:10.688Z,-1.45
2019-02-06T20:10:20.290Z,-1.44
2019-02-06T20:13:25.163Z,-1.43
2019-02-06T20:16:27.803Z,-1.43
2019-02-06T20:19:29.815Z,-1.40
2019-02-06T20:22:32.547Z,-1.39
2019-02-06T20:25:37.138Z,-1.36
2019-02-06T20:28:39.187Z,-1.39
2019-02-06T20:31:41.165Z,-1.45
2019-02-06T20:34:43.494Z,-1.59
2019-02-06T20:37:48.704Z,-1.75
2019-02-06T20:40:51.056Z,-1.85
2019-02-06T20:43:52.921Z,-1.92
2019-02-06T20:46:58.811Z,-1.99
2019-02-06T20:50:05.615Z,-2.08
2019-02-06T20:53:09.845Z,-2.18
2019-02-06T20:56:11.771Z,-2.28
2019-02-06T20:59:14.098Z,-2.26
2019-02-06T21:02:17.108Z,-2.29
2019-02-06T21:05:19.234Z,-2.30
2019-02-06T21:08:22.557Z,-2.33
2019-02-06T21:11:24.829Z,-2.34
2019-02-06T21:14:26.749Z,-2.29
2019-02-06T21:17:30.524Z,-2.24
2019-02-06T21:20:36.005Z,-2.20
2019-02-06T21:23:38.001Z,-2.20
2019-02-06T21:26:44.513Z,-2.28
2019-02-06T21:29:47.199Z,-2.41
2019-02-06T21:32:50.960Z,-2.54
2019-02-06T21:35:54.757Z,-2.56
2019-02-06T21:38:56.696Z,-2.56
2019-02-06T21:42:02.300Z,-2.55
2019-02-06T21:45:08.942Z,-2.55
2019-02-06T21:48:11.359Z,-2.61
2019-02-06T21:51:13.789Z,-2.66
2019-02-06T21:54:15.754Z,-2.72
2019-02-06T21:57:17.664Z,-2.81
2019-02-06T22:00:31.987Z,-2.82
2019-02-06T22:03:33.931Z,-2.81
2019-02-06T22:06:35.962Z,-2.81
2019-02-06T22:09:38.018Z,-2.80
2019-02-06T22:12:40.008Z,-2.77
2019-02-06T22:15:41.934Z,-2.80
2019-02-06T22:18:44.134Z,-2.79
2019-02-06T22:21:46.114Z,-2.78
2019-02-06T22:24:48.077Z,-2.81
2019-02-06T22:27:50.782Z,-2.82
2019-02-06T22:30:53.209Z,-2.82
2019-02-06T22:33:55.176Z,-2.73
2019-02-06T22:36:57.039Z,-2.61
2019-02-06T22:39:58.980Z,-2.56
2019-02-06T22:43:00.928Z,-2.57
2019-02-06T22:46:02.872Z,-2.59
2019-02-06T22:49:04.797Z,-2.65
2019-02-06T22:52:06.938Z,-2.59
2019-02-06T22:55:10.843Z,-2.64
2019-02-06T22:58:12.731Z,-2.68
2019-02-06T23:01:18.451Z,-2.68
2019-02-06T23:04:20.377Z,-2.63
2019-02-06T23:07:22.476Z,-2.65
2019-02-06T23:10:25.017Z,-2.52
2019-02-06T23:13:26.955Z,-2.41
2019-02-06T23:16:28.927Z,-2.41
2019-02-06T23:19:30.873Z,-2.43
2019-02-06T23:22:32.913Z,-2.51
2019-02-06T23:25:34.869Z,-2.58
2019-02-06T23:28:36.827Z,-2.62
2019-02-06T23:31:38.866Z,-2.76
2019-02-06T23:34:40.831Z,-2.94
2019-02-06T23:37:42.771Z,-2.98
2019-02-06T23:40:44.772Z,-3.04
2019-02-06T23:43:46.679Z,-3.12
2019-02-06T23:46:48.628Z,-3.12
2019-02-06T23:49:50.556Z,-3.18
2019-02-06T23:52:52.887Z,-3.24
2019-02-06T23:55:54.792Z,-3.18
2019-02-06T23:58:58.635Z,-3.11
